createdAt,value
2022-11-28T00:01:17.575Z,4.07
2022-11-28T00:03:43.935Z,3.77
2022-11-28T00:06:10.411Z,5.47
2022-11-28T00:08:36.767Z,4.90
2022-11-28T00:11:07.493Z,4.10
2022-11-28T00:13:34.205Z,4.53
2022-11-28T00:16:02.077Z,4.20
2022-11-28T00:18:28.763Z,4.53
2022-11-28T00:21:15.310Z,4.27
2022-11-28T00:23:42.363Z,3.20
2022-11-28T00:26:13.248Z,4.27
2022-11-28T00:28:39.528Z,3.33
2022-11-28T00:31:05.802Z,4.20
2022-11-28T00:33:32.774Z,3.23
2022-11-28T00:36:00.124Z,4.00
2022-11-28T00:38:26.654Z,5.07
2022-11-28T00:41:06.715Z,4.40
2022-11-28T00:43:33.608Z,4.00
2022-11-28T00:45:59.985Z,4.33
2022-11-28T00:48:26.464Z,4.60
2022-11-28T00:50:52.905Z,3.57
2022-11-28T00:53:19.189Z,4.63
2022-11-28T00:55:45.578Z,4.77
2022-11-28T00:58:11.908Z,4.83
2022-11-28T01:00:38.561Z,5.70
2022-11-28T01:03:05.069Z,4.20
2022-11-28T01:05:31.336Z,3.03
2022-11-28T01:07:57.700Z,3.80
2022-11-28T01:10:24.013Z,4.00
2022-11-28T01:12:50.269Z,3.53
2022-11-28T01:15:16.549Z,4.63
2022-11-28T01:17:42.820Z,3.57
2022-11-28T01:20:09.300Z,3.73
2022-11-28T01:22:35.624Z,4.00
2022-11-28T01:25:01.876Z,2.93
2022-11-28T01:27:28.153Z,3.40
2022-11-28T01:29:54.412Z,3.40
2022-11-28T01:32:20.718Z,4.50
2022-11-28T01:34:47.006Z,3.97
2022-11-28T01:37:13.253Z,3.40
2022-11-28T01:39:39.584Z,3.73
2022-11-28T01:42:05.875Z,3.43
2022-11-28T01:44:32.115Z,3.70
2022-11-28T01:46:58.448Z,3.80
2022-11-28T01:49:35.957Z,3.23
2022-11-28T01:52:07.214Z,3.43
2022-11-28T01:54:35.700Z,12.57
2022-11-28T01:57:03.478Z,3.53
2022-11-28T01:59:32.130Z,3.70
2022-11-28T02:01:58.496Z,5.73
2022-11-28T02:04:27.042Z,3.63
2022-11-28T02:06:53.551Z,2.60
2022-11-28T02:09:19.819Z,4.17
2022-11-28T02:12:07.392Z,2.77
2022-11-28T02:14:39.949Z,3.80
2022-11-28T02:17:15.714Z,2.93
2022-11-28T02:20:10.813Z,3.90
2022-11-28T02:22:42.857Z,3.37
2022-11-28T02:25:28.016Z,3.33
2022-11-28T02:27:54.253Z,3.20
2022-11-28T02:30:22.039Z,3.00
2022-11-28T02:32:54.213Z,2.97
2022-11-28T02:35:26.277Z,3.37
2022-11-28T02:37:58.358Z,3.93
2022-11-28T02:40:38.238Z,2.90
2022-11-28T02:43:29.515Z,3.83
2022-11-28T02:46:01.233Z,2.60
2022-11-28T02:48:53.735Z,3.77
2022-11-28T02:51:30.701Z,3.17
2022-11-28T02:53:57.229Z,3.60
2022-11-28T02:56:24.569Z,3.67
2022-11-28T02:58:50.873Z,3.67
2022-11-28T03:01:19.507Z,3.70
2022-11-28T03:03:52.373Z,3.77
2022-11-28T03:06:24.298Z,3.57
2022-11-28T03:09:26.398Z,3.03
2022-11-28T03:11:52.633Z,3.50
2022-11-28T03:14:34.085Z,3.78
2022-11-28T03:17:13.221Z,3.73
2022-11-28T03:19:43.978Z,3.77
2022-11-28T03:22:12.987Z,3.30
2022-11-28T03:24:50.623Z,3.27
2022-11-28T03:27:28.977Z,2.87
2022-11-28T03:30:05.240Z,3.73
2022-11-28T03:32:32.722Z,2.80
2022-11-28T03:35:06.865Z,3.40
2022-11-28T03:37:35.522Z,4.50
2022-11-28T03:40:10.667Z,3.37
2022-11-28T03:42:40.009Z,3.92
2022-11-28T03:45:17.949Z,3.10
2022-11-28T03:47:45.726Z,4.30
2022-11-28T03:50:17.982Z,3.10
2022-11-28T03:52:49.370Z,3.33
2022-11-28T03:55:21.870Z,3.33
2022-11-28T03:57:51.097Z,4.17
2022-11-28T04:00:17.642Z,3.70
2022-11-28T04:02:53.374Z,3.67
2022-11-28T04:05:28.185Z,3.23
2022-11-28T04:08:00.564Z,3.50
2022-11-28T04:10:29.615Z,4.17
2022-11-28T04:13:01.837Z,3.70
2022-11-28T04:15:51.116Z,3.60
2022-11-28T04:18:24.298Z,2.70
2022-11-28T04:20:58.965Z,3.67
2022-11-28T04:23:26.086Z,3.47
2022-11-28T04:25:54.310Z,3.77
2022-11-28T04:28:22.306Z,3.60
2022-11-28T04:30:50.125Z,3.30
2022-11-28T04:33:17.767Z,3.47
2022-11-28T04:35:46.819Z,2.90
2022-11-28T04:38:14.029Z,3.83
2022-11-28T04:40:47.106Z,3.30
2022-11-28T04:43:19.570Z,3.57
2022-11-28T04:45:50.023Z,3.40
2022-11-28T04:48:16.597Z,3.93
2022-11-28T04:51:03.118Z,3.63
2022-11-28T04:53:35.467Z,4.47
2022-11-28T04:56:11.628Z,2.80
2022-11-28T04:58:43.337Z,3.90
2022-11-28T05:01:11.513Z,3.87
2022-11-28T05:03:42.592Z,3.93
2022-11-28T05:06:09.372Z,4.10
2022-11-28T05:08:35.671Z,3.40
2022-11-28T05:11:02.121Z,4.33
2022-11-28T05:13:28.384Z,4.17
2022-11-28T05:15:54.745Z,3.50
2022-11-28T05:18:21.109Z,3.80
2022-11-28T05:20:47.440Z,3.87
2022-11-28T05:23:13.707Z,3.77
2022-11-28T05:25:40.106Z,3.63
2022-11-28T05:28:06.460Z,3.87
2022-11-28T05:30:32.738Z,4.80
2022-11-28T05:32:59.355Z,3.73
2022-11-28T05:35:25.637Z,4.33
2022-11-28T05:37:52.098Z,3.60
2022-11-28T05:40:18.395Z,3.60
2022-11-28T05:42:44.649Z,3.93
2022-11-28T05:45:11.083Z,3.17
2022-11-28T05:47:37.370Z,3.53
2022-11-28T05:50:03.744Z,4.07
2022-11-28T05:52:32.127Z,4.20
2022-11-28T05:54:59.913Z,3.33
2022-11-28T05:57:26.310Z,3.70
2022-11-28T05:59:52.710Z,4.07
2022-11-28T06:02:19.142Z,3.70
2022-11-28T06:04:45.545Z,4.40
2022-11-28T06:07:11.857Z,4.13
2022-11-28T06:09:38.120Z,4.00
2022-11-28T06:12:04.708Z,4.23
2022-11-28T06:14:30.978Z,4.17
2022-11-28T06:16:57.340Z,3.83
2022-11-28T06:19:23.657Z,4.13
2022-11-28T06:21:50.401Z,4.20
2022-11-28T06:24:16.670Z,4.23
2022-11-28T06:26:42.954Z,4.13
2022-11-28T06:29:09.259Z,3.50
2022-11-28T06:31:35.649Z,4.63
2022-11-28T06:34:01.934Z,3.43
2022-11-28T06:36:28.585Z,4.17
2022-11-28T06:38:54.879Z,3.50
2022-11-28T06:41:22.769Z,3.87
2022-11-28T06:43:49.071Z,3.90
2022-11-28T06:46:17.175Z,4.23
2022-11-28T06:48:43.933Z,3.93
2022-11-28T06:51:10.981Z,4.30
2022-11-28T06:53:37.261Z,4.17
2022-11-28T06:56:07.533Z,5.57
2022-11-28T06:58:34.209Z,5.67
2022-11-28T07:01:34.225Z,5.43
2022-11-28T07:04:01.914Z,4.53
2022-11-28T07:06:28.642Z,3.37
2022-11-28T07:08:58.550Z,5.23
2022-11-28T07:11:29.197Z,4.43
2022-11-28T07:13:55.876Z,3.83
2022-11-28T07:16:33.288Z,4.45
2022-11-28T07:18:59.801Z,5.83
2022-11-28T07:21:26.958Z,3.50
2022-11-28T07:23:53.460Z,3.50
2022-11-28T07:26:21.277Z,4.35
2022-11-28T07:28:48.219Z,3.65
2022-11-28T07:31:21.781Z,3.87
2022-11-28T07:33:49.746Z,4.80
2022-11-28T07:36:17.876Z,5.07
2022-11-28T07:38:46.321Z,3.67
2022-11-28T07:41:13.430Z,3.97
2022-11-28T07:43:40.464Z,4.53
2022-11-28T07:46:07.883Z,3.53
2022-11-28T07:48:34.517Z,3.77
2022-11-28T07:51:04.232Z,4.63
2022-11-28T07:53:30.500Z,4.17
2022-11-28T07:56:00.522Z,4.43
2022-11-28T07:58:26.774Z,4.57
2022-11-28T08:00:53.024Z,5.07
2022-11-28T08:03:19.390Z,3.90
2022-11-28T08:05:49.531Z,5.40
2022-11-28T08:08:16.644Z,4.53
2022-11-28T08:10:43.167Z,5.47
2022-11-28T08:13:09.759Z,5.30
2022-11-28T08:15:39.560Z,5.50
2022-11-28T08:18:06.606Z,5.40
2022-11-28T08:20:33.154Z,4.67
2022-11-28T08:22:59.417Z,5.83
2022-11-28T08:25:25.681Z,5.50
2022-11-28T08:27:51.977Z,4.80
2022-11-28T08:30:18.312Z,6.33
2022-11-28T08:32:44.609Z,6.27
2022-11-28T08:35:10.970Z,6.33
2022-11-28T08:37:37.240Z,6.57
2022-11-28T08:40:03.603Z,4.90
2022-11-28T08:42:29.918Z,6.17
2022-11-28T08:44:56.190Z,6.37
2022-11-28T08:47:22.452Z,6.33
2022-11-28T08:49:48.782Z,6.23
2022-11-28T08:52:15.083Z,6.47
2022-11-28T08:54:41.781Z,7.15
2022-11-28T08:57:08.267Z,7.37
2022-11-28T08:59:34.556Z,6.97
2022-11-28T09:02:00.811Z,7.00
2022-11-28T09:04:27.351Z,7.27
2022-11-28T09:06:53.726Z,7.15
2022-11-28T09:09:19.996Z,7.85
2022-11-28T09:11:46.728Z,6.03
2022-11-28T09:14:13.190Z,6.72
2022-11-28T09:16:39.771Z,6.23
2022-11-28T09:19:09.056Z,7.43
2022-11-28T09:21:35.330Z,9.30
2022-11-28T09:24:01.680Z,7.75
2022-11-28T09:26:29.848Z,7.65
2022-11-28T09:28:56.147Z,8.02
2022-11-28T09:31:22.704Z,7.80
2022-11-28T09:33:49.425Z,8.07
2022-11-28T09:36:17.050Z,6.72
2022-11-28T09:38:43.627Z,6.82
2022-11-28T09:41:28.672Z,7.85
2022-11-28T09:44:08.989Z,8.25
2022-11-28T09:46:36.869Z,7.50
2022-11-28T09:49:05.041Z,9.17
2022-11-28T09:51:34.490Z,8.73
2022-11-28T09:54:03.722Z,7.10
2022-11-28T09:56:30.186Z,8.47
2022-11-28T09:58:58.911Z,8.60
2022-11-28T10:01:30.993Z,7.45
2022-11-28T10:04:11.405Z,8.07
2022-11-28T10:06:58.802Z,8.52
2022-11-28T10:09:52.841Z,8.95
2022-11-28T10:12:37.672Z,10.68
2022-11-28T10:15:06.865Z,10.77
2022-11-28T10:17:39.325Z,11.15
2022-11-28T10:20:10.624Z,10.40
2022-11-28T10:22:47.858Z,12.63
2022-11-28T10:25:17.978Z,11.57
2022-11-28T10:27:44.949Z,11.63
2022-11-28T10:30:16.385Z,12.35
2022-11-28T10:32:45.056Z,12.30
2022-11-28T10:35:11.302Z,11.88
2022-11-28T10:37:38.744Z,12.07
2022-11-28T10:40:17.226Z,10.77
2022-11-28T10:42:53.663Z,12.18
2022-11-28T10:45:39.321Z,12.80
2022-11-28T10:48:38.064Z,12.30
2022-11-28T10:51:09.990Z,12.43
2022-11-28T10:53:54.959Z,13.63
2022-11-28T10:56:39.857Z,13.55
2022-11-28T10:59:28.841Z,12.95
2022-11-28T11:01:56.158Z,15.55
2022-11-28T11:04:26.561Z,13.40
2022-11-28T11:07:08.840Z,17.05
2022-11-28T11:09:36.365Z,13.50
2022-11-28T11:12:03.663Z,14.40
2022-11-28T11:14:35.887Z,15.48
2022-11-28T11:17:02.245Z,15.88
2022-11-28T11:19:30.193Z,15.32
2022-11-28T11:21:59.186Z,15.23
2022-11-28T11:24:25.493Z,16.42
2022-11-28T11:26:51.785Z,15.95
2022-11-28T11:29:23.527Z,16.27
2022-11-28T11:31:51.180Z,16.08
2022-11-28T11:34:18.382Z,16.50
2022-11-28T11:36:45.253Z,15.68
2022-11-28T11:39:11.516Z,14.07
2022-11-28T11:41:44.674Z,15.75
2022-11-28T11:44:13.787Z,15.70
2022-11-28T11:46:52.875Z,17.30
2022-11-28T11:49:27.881Z,17.63
2022-11-28T11:51:58.606Z,16.83
2022-11-28T11:54:24.884Z,15.88
2022-11-28T11:57:05.688Z,15.43
2022-11-28T11:59:43.399Z,18.17
2022-11-28T12:02:24.362Z,18.50
2022-11-28T12:04:55.551Z,18.25
2022-11-28T12:07:26.169Z,17.65
2022-11-28T12:09:54.690Z,19.13
2022-11-28T12:12:26.503Z,18.48
2022-11-28T12:14:52.872Z,22.25
2022-11-28T12:17:47.725Z,20.35
2022-11-28T12:20:22.714Z,20.15
2022-11-28T12:23:27.458Z,18.95
2022-11-28T12:26:04.575Z,17.55
2022-11-28T12:28:49.346Z,18.60
2022-11-28T12:31:24.511Z,21.17
2022-11-28T12:33:57.027Z,18.48
2022-11-28T12:36:26.029Z,18.63
2022-11-28T12:39:00.454Z,18.58
2022-11-28T12:41:44.762Z,19.92
2022-11-28T12:44:23.244Z,18.65
2022-11-28T12:47:07.959Z,19.85
2022-11-28T12:49:54.075Z,21.67
2022-11-28T12:52:23.165Z,18.75
2022-11-28T12:54:49.418Z,19.80
2022-11-28T12:57:54.544Z,19.00
2022-11-28T13:00:22.528Z,18.60
2022-11-28T13:03:03.978Z,19.40
2022-11-28T13:05:49.132Z,19.27
2022-11-28T13:08:37.176Z,18.15
2022-11-28T13:11:13.629Z,18.38
2022-11-28T13:13:43.684Z,20.10
2022-11-28T13:16:27.201Z,18.48
2022-11-28T13:18:53.958Z,19.00
2022-11-28T13:21:32.474Z,19.23
2022-11-28T13:24:10.074Z,19.70
2022-11-28T13:26:42.168Z,19.00
2022-11-28T13:29:16.901Z,18.80
2022-11-28T13:31:50.971Z,19.90
2022-11-28T13:34:18.300Z,18.08
2022-11-28T13:39:47.075Z,19.17
2022-11-28T13:42:52.757Z,19.88
2022-11-28T13:45:32.058Z,19.48
2022-11-28T13:48:00.314Z,18.48
2022-11-28T13:50:29.503Z,14.32
2022-11-28T13:53:03.049Z,18.42
2022-11-28T13:55:38.914Z,19.50
2022-11-28T13:58:17.262Z,19.98
2022-11-28T14:00:58.726Z,19.85
2022-11-28T14:03:26.125Z,21.23
2022-11-28T14:05:57.443Z,22.27
2022-11-28T14:08:35.338Z,20.27
2022-11-28T14:11:11.264Z,20.73
2022-11-28T14:13:45.865Z,20.02
2022-11-28T14:16:25.734Z,20.58
2022-11-28T14:19:10.669Z,18.67
2022-11-28T14:21:52.049Z,19.70
2022-11-28T14:24:44.709Z,20.15
2022-11-28T14:27:22.651Z,19.42
2022-11-28T14:29:50.551Z,18.98
2022-11-28T14:32:34.028Z,18.38
2022-11-28T14:35:01.017Z,19.30
2022-11-28T14:37:28.524Z,18.67
2022-11-28T14:39:56.272Z,20.88
2022-11-28T14:42:58.199Z,18.27
2022-11-28T14:45:30.725Z,18.60
2022-11-28T14:48:06.899Z,20.48
2022-11-28T14:50:39.069Z,19.23
2022-11-28T14:53:40.732Z,19.77
2022-11-28T14:56:27.469Z,17.13
2022-11-28T14:58:56.551Z,19.30
2022-11-28T15:01:46.041Z,19.10
2022-11-28T15:04:30.978Z,19.13
2022-11-28T15:06:59.520Z,19.08
2022-11-28T15:09:25.809Z,20.02
2022-11-28T15:12:16.856Z,20.50
2022-11-28T15:14:45.232Z,18.13
2022-11-28T15:17:13.273Z,20.70
2022-11-28T15:19:47.813Z,19.63
2022-11-28T15:22:29.305Z,19.02
2022-11-28T15:24:55.565Z,17.40
2022-11-28T15:27:26.242Z,19.35
2022-11-28T15:29:55.657Z,18.30
2022-11-28T15:32:22.709Z,18.38
2022-11-28T15:34:53.925Z,20.58
2022-11-28T15:37:20.305Z,19.13
2022-11-28T15:39:48.086Z,17.60
2022-11-28T15:42:21.977Z,19.25
2022-11-28T15:44:51.850Z,19.48
2022-11-28T15:47:19.764Z,19.23
2022-11-28T15:49:46.106Z,16.95
2022-11-28T15:52:16.181Z,18.30
2022-11-28T15:54:43.842Z,18.17
2022-11-28T15:57:21.073Z,15.70
2022-11-28T15:59:47.401Z,17.13
2022-11-28T16:02:22.962Z,19.65
2022-11-28T16:04:51.658Z,21.45
2022-11-28T16:07:18.049Z,23.83
2022-11-28T16:09:55.757Z,21.70
2022-11-28T16:12:22.261Z,23.58
2022-11-28T16:14:49.435Z,23.60
2022-11-28T16:17:20.529Z,24.02
2022-11-28T16:19:49.826Z,24.25
2022-11-28T16:22:19.439Z,21.80
2022-11-28T16:24:47.449Z,23.05
2022-11-28T16:27:45.403Z,22.35
2022-11-28T16:30:28.763Z,23.65
2022-11-28T16:32:55.692Z,21.02
2022-11-28T16:35:38.786Z,22.30
2022-11-28T16:38:06.131Z,20.45
2022-11-28T16:40:32.592Z,22.00
2022-11-28T16:42:59.386Z,23.23
2022-11-28T16:45:27.600Z,25.10
2022-11-28T16:48:08.809Z,26.17
2022-11-28T16:50:35.822Z,25.50
2022-11-28T16:53:02.945Z,23.55
2022-11-28T16:55:29.419Z,23.73
2022-11-28T16:57:58.792Z,26.02
2022-11-28T17:00:25.054Z,23.60
2022-11-28T17:02:52.796Z,24.80
2022-11-28T17:05:19.056Z,24.65
2022-11-28T17:07:45.397Z,25.02
2022-11-28T17:10:12.258Z,27.42
2022-11-28T17:12:39.114Z,23.83
2022-11-28T17:15:07.809Z,26.38
2022-11-28T17:17:35.337Z,23.92
2022-11-28T17:20:01.648Z,25.30
2022-11-28T17:22:38.912Z,24.67
2022-11-28T17:25:07.684Z,26.08
2022-11-28T17:27:33.944Z,23.30
2022-11-28T17:30:00.262Z,24.15
2022-11-28T17:32:26.543Z,23.60
2022-11-28T17:34:52.801Z,23.35
2022-11-28T17:37:19.062Z,22.00
2022-11-28T17:40:05.289Z,22.65
2022-11-28T17:42:31.982Z,21.65
2022-11-28T17:44:58.293Z,19.83
2022-11-28T17:47:24.635Z,23.27
2022-11-28T17:49:51.522Z,21.48
2022-11-28T17:52:19.932Z,21.83
2022-11-28T17:54:46.279Z,21.52
2022-11-28T17:57:12.798Z,21.27
2022-11-28T17:59:39.085Z,22.30
2022-11-28T18:02:05.467Z,20.77
2022-11-28T18:04:34.019Z,21.55
2022-11-28T18:07:01.600Z,19.45
2022-11-28T18:09:29.167Z,21.38
2022-11-28T18:11:55.424Z,18.02
2022-11-28T18:14:21.714Z,18.90
2022-11-28T18:16:48.227Z,17.48
2022-11-28T18:19:14.882Z,21.58
2022-11-28T18:21:41.123Z,19.20
2022-11-28T18:24:07.580Z,18.83
2022-11-28T18:26:33.973Z,17.83
2022-11-28T18:29:00.406Z,21.17
2022-11-28T18:31:27.886Z,19.95
2022-11-28T18:34:00.197Z,18.90
2022-11-28T18:36:28.828Z,17.77
2022-11-28T18:38:58.993Z,18.92
2022-11-28T18:41:25.769Z,17.70
2022-11-28T18:43:55.838Z,17.85
2022-11-28T18:46:22.213Z,19.33
2022-11-28T18:48:48.516Z,19.45
2022-11-28T18:51:19.108Z,18.30
2022-11-28T18:53:45.800Z,17.27
2022-11-28T18:56:12.992Z,17.63
2022-11-28T18:58:40.358Z,18.40
2022-11-28T19:01:10.985Z,19.10
2022-11-28T19:03:37.589Z,17.92
2022-11-28T19:06:04.862Z,18.52
2022-11-28T19:08:31.178Z,17.38
2022-11-28T19:10:57.426Z,17.98
2022-11-28T19:13:23.705Z,17.13
2022-11-28T19:15:49.958Z,16.92
2022-11-28T19:18:16.302Z,18.65
2022-11-28T19:20:43.343Z,16.50
2022-11-28T19:23:09.613Z,17.38
2022-11-28T19:25:35.889Z,15.80
2022-11-28T19:28:02.159Z,17.05
2022-11-28T19:30:28.439Z,16.77
2022-11-28T19:32:55.754Z,17.33
2022-11-28T19:35:22.102Z,16.00
2022-11-28T19:37:48.352Z,16.85
2022-11-28T19:40:14.721Z,16.52
2022-11-28T19:42:40.984Z,14.75
2022-11-28T19:45:07.561Z,15.93
2022-11-28T19:47:33.838Z,15.30
2022-11-28T19:50:00.116Z,15.23
2022-11-28T19:52:27.390Z,13.55
2022-11-28T19:54:53.688Z,13.75
2022-11-28T19:57:20.712Z,13.07
2022-11-28T19:59:47.075Z,13.57
2022-11-28T20:02:13.497Z,13.52
2022-11-28T20:04:40.342Z,15.10
2022-11-28T20:07:07.152Z,13.37
2022-11-28T20:09:33.473Z,14.32
2022-11-28T20:11:59.813Z,14.18
2022-11-28T20:14:27.590Z,13.32
2022-11-28T20:16:53.908Z,15.98
2022-11-28T20:19:20.354Z,13.93
2022-11-28T20:21:46.793Z,14.33
2022-11-28T20:24:13.181Z,16.47
2022-11-28T20:26:40.838Z,16.42
2022-11-28T20:29:07.936Z,16.27
2022-11-28T20:31:38.402Z,13.73
2022-11-28T20:34:05.162Z,13.80
2022-11-28T20:36:31.688Z,14.00
2022-11-28T20:38:58.413Z,14.45
2022-11-28T20:41:25.667Z,13.85
2022-11-28T20:43:52.120Z,15.63
2022-11-28T20:46:23.068Z,13.63
2022-11-28T20:48:49.934Z,14.23
2022-11-28T20:51:20.342Z,13.27
2022-11-28T20:53:47.056Z,14.68
2022-11-28T20:56:17.757Z,14.10
2022-11-28T20:58:44.487Z,12.50
2022-11-28T21:01:21.575Z,11.73
2022-11-28T21:03:48.180Z,12.13
2022-11-28T21:06:14.481Z,13.37
2022-11-28T21:08:40.883Z,12.90
2022-11-28T21:11:08.084Z,13.33
2022-11-28T21:13:34.345Z,11.07
2022-11-28T21:16:05.037Z,10.87
2022-11-28T21:18:31.366Z,12.43
2022-11-28T21:20:57.614Z,14.43
2022-11-28T21:23:23.881Z,11.83
2022-11-28T21:25:50.130Z,11.90
2022-11-28T21:28:16.394Z,12.97
2022-11-28T21:30:44.105Z,15.67
2022-11-28T21:33:11.322Z,16.50
2022-11-28T21:35:38.481Z,13.30
2022-11-28T21:38:04.878Z,15.50
2022-11-28T21:40:31.250Z,14.17
2022-11-28T21:42:57.743Z,13.93
2022-11-28T21:45:24.656Z,13.40
2022-11-28T21:47:51.130Z,14.30
2022-11-28T21:50:17.680Z,15.10
2022-11-28T21:52:43.933Z,14.83
2022-11-28T21:55:10.204Z,16.33
2022-11-28T21:57:36.487Z,14.27
2022-11-28T22:00:03.337Z,16.13
2022-11-28T22:02:30.945Z,16.20
2022-11-28T22:04:58.916Z,13.53
2022-11-28T22:07:25.280Z,12.43
2022-11-28T22:09:51.653Z,13.63
2022-11-28T22:12:17.918Z,11.33
2022-11-28T22:14:44.159Z,11.87
2022-11-28T22:17:10.446Z,11.87
2022-11-28T22:19:36.827Z,12.10
2022-11-28T22:22:03.134Z,10.30
2022-11-28T22:24:29.431Z,12.83
2022-11-28T22:26:55.780Z,11.30
2022-11-28T22:29:22.122Z,11.00
2022-11-28T22:31:48.494Z,11.10
2022-11-28T22:34:14.998Z,11.50
2022-11-28T22:36:41.270Z,10.53
2022-11-28T22:39:07.667Z,10.27
2022-11-28T22:41:33.962Z,10.33
2022-11-28T22:44:01.148Z,10.83
2022-11-28T22:46:27.926Z,10.10
2022-11-28T22:48:54.205Z,9.57
2022-11-28T22:51:22.253Z,10.53
2022-11-28T22:53:52.059Z,5.60
2022-11-28T22:56:18.324Z,8.03
2022-11-28T22:58:44.997Z,6.00
2022-11-28T23:01:12.658Z,6.03
2022-11-28T23:03:41.266Z,6.47
2022-11-28T23:06:12.149Z,6.40
2022-11-28T23:08:38.663Z,6.33
2022-11-28T23:11:08.704Z,6.20
2022-11-28T23:13:35.454Z,6.80
2022-11-28T23:16:10.632Z,7.07
2022-11-28T23:21:03.123Z,5.80
2022-11-28T23:23:30.824Z,6.87
2022-11-28T23:25:57.158Z,6.67
2022-11-28T23:28:23.416Z,6.63
2022-11-28T23:30:49.654Z,6.37
2022-11-28T23:33:15.933Z,6.90
2022-11-28T23:35:42.201Z,6.30
2022-11-28T23:38:08.499Z,6.80
2022-11-28T23:40:34.753Z,6.37
2022-11-28T23:43:01.022Z,6.83
2022-11-28T23:45:27.331Z,6.70
2022-11-28T23:47:53.640Z,7.27
2022-11-28T23:50:19.890Z,7.20
2022-11-28T23:52:46.161Z,6.47
2022-11-28T23:55:12.411Z,7.33
2022-11-28T23:57:38.657Z,5.97
